sensor_id;sensor_type;location;lat;lon;timestamp;pressure;altitude;pressure_sealevel;temperature;humidity
51053;BME280;37093;37.716;-122.060;2023-06-05T00:01:11;99208.49;;;30.72;24.90
51053;BME280;37093;37.716;-122.060;2023-06-05T00:03:39;99203.58;;;30.80;24.28
51053;BME280;37093;37.716;-122.060;2023-06-05T00:06:07;99207.02;;;30.40;24.39
51053;BME280;37093;37.716;-122.060;2023-06-05T00:08:35;99205.24;;;30.94;23.26
51053;BME280;37093;37.716;-122.060;2023-06-05T00:11:04;99207.61;;;30.81;23.32
51053;BME280;37093;37.716;-122.060;2023-06-05T00:13:32;99207.50;;;31.05;23.16
51053;BME280;37093;37.716;-122.060;2023-06-05T00:16:01;99210.61;;;30.62;23.36
51053;BME280;37093;37.716;-122.060;2023-06-05T00:18:29;99207.61;;;30.22;23.83
51053;BME280;37093;37.716;-122.060;2023-06-05T00:20:57;99205.43;;;30.33;23.29
51053;BME280;37093;37.716;-122.060;2023-06-05T00:23:26;99202.81;;;29.72;24.18
51053;BME280;37093;37.716;-122.060;2023-06-05T00:25:55;99202.96;;;29.98;23.65
51053;BME280;37093;37.716;-122.060;2023-06-05T00:28:23;99201.85;;;29.87;24.13
51053;BME280;37093;37.716;-122.060;2023-06-05T00:30:52;99202.55;;;29.34;24.62
51053;BME280;37093;37.716;-122.060;2023-06-05T00:33:20;99200.97;;;29.80;23.98
51053;BME280;37093;37.716;-122.060;2023-06-05T00:35:49;99201.96;;;29.57;24.20
51053;BME280;37093;37.716;-122.060;2023-06-05T00:38:17;99197.49;;;29.90;24.24
51053;BME280;37093;37.716;-122.060;2023-06-05T00:40:46;99195.53;;;29.34;24.91
51053;BME280;37093;37.716;-122.060;2023-06-05T00:43:14;99196.00;;;30.09;24.04
51053;BME280;37093;37.716;-122.060;2023-06-05T00:45:43;99196.87;;;29.58;24.90
51053;BME280;37093;37.716;-122.060;2023-06-05T00:48:11;99193.50;;;29.93;24.47
51053;BME280;37093;37.716;-122.060;2023-06-05T00:50:40;99194.37;;;29.92;24.19
51053;BME280;37093;37.716;-122.060;2023-06-05T00:53:08;99197.89;;;30.01;24.26
51053;BME280;37093;37.716;-122.060;2023-06-05T00:55:37;99196.05;;;29.71;24.25
51053;BME280;37093;37.716;-122.060;2023-06-05T00:58:05;99196.11;;;29.34;24.74
51053;BME280;37093;37.716;-122.060;2023-06-05T01:00:39;99190.46;;;29.68;25.02
51053;BME280;37093;37.716;-122.060;2023-06-05T01:03:08;99188.74;;;29.41;25.32
51053;BME280;37093;37.716;-122.060;2023-06-05T01:05:36;99188.03;;;29.18;25.39
51053;BME280;37093;37.716;-122.060;2023-06-05T01:08:05;99184.55;;;28.91;25.47
51053;BME280;37093;37.716;-122.060;2023-06-05T01:10:33;99183.46;;;28.82;25.97
51053;BME280;37093;37.716;-122.060;2023-06-05T01:13:06;99181.35;;;28.81;26.62
51053;BME280;37093;37.716;-122.060;2023-06-05T01:15:38;99177.73;;;28.53;26.50
51053;BME280;37093;37.716;-122.060;2023-06-05T01:18:07;99176.88;;;28.96;26.16
51053;BME280;37093;37.716;-122.060;2023-06-05T01:20:39;99178.06;;;28.30;26.65
51053;BME280;37093;37.716;-122.060;2023-06-05T01:23:08;99177.87;;;28.71;26.11
51053;BME280;37093;37.716;-122.060;2023-06-05T01:25:37;99178.00;;;29.08;25.84
51053;BME280;37093;37.716;-122.060;2023-06-05T01:28:10;99178.61;;;29.04;25.87
51053;BME280;37093;37.716;-122.060;2023-06-05T01:30:46;99176.75;;;28.70;26.60
51053;BME280;37093;37.716;-122.060;2023-06-05T01:33:22;99180.41;;;28.49;26.84
51053;BME280;37093;37.716;-122.060;2023-06-05T01:35:53;99179.15;;;28.26;26.57
51053;BME280;37093;37.716;-122.060;2023-06-05T01:38:22;99182.08;;;27.60;27.26
51053;BME280;37093;37.716;-122.060;2023-06-05T01:40:52;99182.12;;;27.16;27.97
51053;BME280;37093;37.716;-122.060;2023-06-05T01:43:21;99186.78;;;27.15;28.24
51053;BME280;37093;37.716;-122.060;2023-06-05T01:45:49;99187.04;;;27.31;28.41
51053;BME280;37093;37.716;-122.060;2023-06-05T01:48:18;99186.00;;;26.93;28.43
51053;BME280;37093;37.716;-122.060;2023-06-05T01:50:47;99186.27;;;27.45;28.31
51053;BME280;37093;37.716;-122.060;2023-06-05T01:53:15;99182.85;;;27.23;28.09
51053;BME280;37093;37.716;-122.060;2023-06-05T01:55:44;99184.19;;;27.41;28.33
51053;BME280;37093;37.716;-122.060;2023-06-05T01:58:12;99184.76;;;27.48;27.90
51053;BME280;37093;37.716;-122.060;2023-06-05T02:00:40;99184.29;;;27.14;28.24
51053;BME280;37093;37.716;-122.060;2023-06-05T02:03:09;99183.42;;;26.81;28.40
51053;BME280;37093;37.716;-122.060;2023-06-05T02:05:37;99186.06;;;27.17;28.76
51053;BME280;37093;37.716;-122.060;2023-06-05T02:08:06;99187.51;;;26.86;28.45
51053;BME280;37093;37.716;-122.060;2023-06-05T02:10:34;99189.92;;;26.88;28.68
51053;BME280;37093;37.716;-122.060;2023-06-05T02:13:02;99188.88;;;26.89;28.86
51053;BME280;37093;37.716;-122.060;2023-06-05T02:15:31;99190.39;;;26.94;28.83
51053;BME280;37093;37.716;-122.060;2023-06-05T02:17:59;99189.06;;;26.92;29.10
51053;BME280;37093;37.716;-122.060;2023-06-05T02:20:28;99193.02;;;26.86;29.19
51053;BME280;37093;37.716;-122.060;2023-06-05T02:22:56;99190.88;;;26.28;29.94
51053;BME280;37093;37.716;-122.060;2023-06-05T02:25:25;99194.03;;;25.85;30.74
51053;BME280;37093;37.716;-122.060;2023-06-05T02:27:53;99198.85;;;26.05;30.33
51053;BME280;37093;37.716;-122.060;2023-06-05T02:30:22;99197.77;;;26.05;30.08
51053;BME280;37093;37.716;-122.060;2023-06-05T02:32:51;99199.23;;;25.73;30.29
51053;BME280;37093;37.716;-122.060;2023-06-05T02:35:20;99196.18;;;26.43;29.70
51053;BME280;37093;37.716;-122.060;2023-06-05T02:37:48;99191.50;;;26.17;29.47
51053;BME280;37093;37.716;-122.060;2023-06-05T02:40:16;99195.45;;;25.52;29.90
51053;BME280;37093;37.716;-122.060;2023-06-05T02:42:45;99198.30;;;25.98;29.91
51053;BME280;37093;37.716;-122.060;2023-06-05T02:45:14;99201.61;;;25.50;30.26
51053;BME280;37093;37.716;-122.060;2023-06-05T02:47:43;99203.15;;;25.58;29.92
51053;BME280;37093;37.716;-122.060;2023-06-05T02:50:11;99201.36;;;25.96;29.82
51053;BME280;37093;37.716;-122.060;2023-06-05T02:52:40;99201.63;;;26.15;29.19
51053;BME280;37093;37.716;-122.060;2023-06-05T02:55:08;99198.08;;;25.38;29.33
51053;BME280;37093;37.716;-122.060;2023-06-05T02:57:37;99202.19;;;25.57;29.18
51053;BME280;37093;37.716;-122.060;2023-06-05T03:00:07;99201.00;;;25.59;29.02
51053;BME280;37093;37.716;-122.060;2023-06-05T03:02:36;99201.86;;;24.90;30.14
51053;BME280;37093;37.716;-122.060;2023-06-05T03:05:05;99204.73;;;24.91;30.44
51053;BME280;37093;37.716;-122.060;2023-06-05T03:07:34;99212.61;;;24.55;31.32
51053;BME280;37093;37.716;-122.060;2023-06-05T03:10:03;99211.03;;;24.27;31.37
51053;BME280;37093;37.716;-122.060;2023-06-05T03:12:31;99212.65;;;24.39;31.22
51053;BME280;37093;37.716;-122.060;2023-06-05T03:14:59;99212.72;;;24.38;31.65
51053;BME280;37093;37.716;-122.060;2023-06-05T03:17:27;99213.44;;;24.46;31.56
51053;BME280;37093;37.716;-122.060;2023-06-05T03:19:56;99216.17;;;24.50;30.99
51053;BME280;37093;37.716;-122.060;2023-06-05T03:22:24;99216.46;;;25.06;30.43
51053;BME280;37093;37.716;-122.060;2023-06-05T03:24:52;99211.40;;;24.84;30.65
51053;BME280;37093;37.716;-122.060;2023-06-05T03:27:21;99213.48;;;24.89;30.52
51053;BME280;37093;37.716;-122.060;2023-06-05T03:29:50;99217.78;;;24.81;30.60
51053;BME280;37093;37.716;-122.060;2023-06-05T03:32:18;99219.42;;;24.81;31.10
51053;BME280;37093;37.716;-122.060;2023-06-05T03:34:46;99216.37;;;24.68;31.08
51053;BME280;37093;37.716;-122.060;2023-06-05T03:37:14;99216.67;;;24.80;30.90
51053;BME280;37093;37.716;-122.060;2023-06-05T03:39:43;99219.20;;;24.52;31.22
51053;BME280;37093;37.716;-122.060;2023-06-05T03:42:11;99221.53;;;24.37;31.76
51053;BME280;37093;37.716;-122.060;2023-06-05T03:44:40;99224.07;;;24.59;31.40
51053;BME280;37093;37.716;-122.060;2023-06-05T03:47:08;99229.46;;;24.24;32.08
51053;BME280;37093;37.716;-122.060;2023-06-05T03:49:36;99233.92;;;24.35;31.89
51053;BME280;37093;37.716;-122.060;2023-06-05T03:52:04;99234.48;;;24.47;32.07
51053;BME280;37093;37.716;-122.060;2023-06-05T03:54:33;99240.14;;;24.40;32.27
51053;BME280;37093;37.716;-122.060;2023-06-05T03:57:01;99239.65;;;23.92;32.30
51053;BME280;37093;37.716;-122.060;2023-06-05T03:59:29;99240.57;;;24.39;32.22
51053;BME280;37093;37.716;-122.060;2023-06-05T04:01:57;99247.51;;;23.97;32.85
51053;BME280;37093;37.716;-122.060;2023-06-05T04:04:26;99250.70;;;23.98;32.76
51053;BME280;37093;37.716;-122.060;2023-06-05T04:06:55;99251.26;;;23.32;33.52
51053;BME280;37093;37.716;-122.060;2023-06-05T04:09:23;99254.26;;;22.82;34.82
51053;BME280;37093;37.716;-122.060;2023-06-05T04:11:52;99250.37;;;22.26;34.86
51053;BME280;37093;37.716;-122.060;2023-06-05T04:14:20;99250.20;;;23.16;34.20
51053;BME280;37093;37.716;-122.060;2023-06-05T04:16:49;99254.64;;;23.03;33.52
51053;BME280;37093;37.716;-122.060;2023-06-05T04:19:18;99252.02;;;22.88;34.39
51053;BME280;37093;37.716;-122.060;2023-06-05T04:21:47;99257.09;;;22.89;33.76
51053;BME280;37093;37.716;-122.060;2023-06-05T04:24:15;99263.44;;;22.90;33.66
51053;BME280;37093;37.716;-122.060;2023-06-05T04:26:43;99261.58;;;23.00;34.20
51053;BME280;37093;37.716;-122.060;2023-06-05T04:29:12;99265.78;;;22.76;34.32
51053;BME280;37093;37.716;-122.060;2023-06-05T04:31:42;99265.99;;;22.77;33.96
51053;BME280;37093;37.716;-122.060;2023-06-05T04:34:11;99270.90;;;22.85;33.93
51053;BME280;37093;37.716;-122.060;2023-06-05T04:36:40;99270.67;;;22.53;34.72
51053;BME280;37093;37.716;-122.060;2023-06-05T04:39:09;99276.94;;;22.77;34.50
51053;BME280;37093;37.716;-122.060;2023-06-05T04:41:37;99284.88;;;22.33;34.30
51053;BME280;37093;37.716;-122.060;2023-06-05T04:44:05;99288.48;;;22.90;34.35
51053;BME280;37093;37.716;-122.060;2023-06-05T04:46:34;99295.49;;;22.46;34.27
51053;BME280;37093;37.716;-122.060;2023-06-05T04:49:02;99298.73;;;22.72;34.26
51053;BME280;37093;37.716;-122.060;2023-06-05T04:51:31;99298.32;;;22.72;34.27
51053;BME280;37093;37.716;-122.060;2023-06-05T04:53:59;99298.23;;;22.50;33.90
51053;BME280;37093;37.716;-122.060;2023-06-05T04:56:27;99293.84;;;22.82;33.97
51053;BME280;37093;37.716;-122.060;2023-06-05T04:58:56;99291.56;;;22.71;34.16
51053;BME280;37093;37.716;-122.060;2023-06-05T05:01:24;99291.64;;;22.60;34.61
51053;BME280;37093;37.716;-122.060;2023-06-05T05:03:53;99291.65;;;22.55;34.70
51053;BME280;37093;37.716;-122.060;2023-06-05T05:06:21;99298.18;;;22.30;35.07
51053;BME280;37093;37.716;-122.060;2023-06-05T05:08:50;99303.06;;;22.33;35.00
51053;BME280;37093;37.716;-122.060;2023-06-05T05:11:19;99302.52;;;22.00;35.14
51053;BME280;37093;37.716;-122.060;2023-06-05T05:13:47;99308.69;;;22.06;35.40
51053;BME280;37093;37.716;-122.060;2023-06-05T05:16:15;99308.83;;;21.97;35.56
51053;BME280;37093;37.716;-122.060;2023-06-05T05:18:44;99306.53;;;22.00;35.65
51053;BME280;37093;37.716;-122.060;2023-06-05T05:21:12;99302.49;;;21.95;35.51
51053;BME280;37093;37.716;-122.060;2023-06-05T05:23:40;99296.12;;;22.03;35.49
51053;BME280;37093;37.716;-122.060;2023-06-05T05:26:10;99294.52;;;22.08;35.31
51053;BME280;37093;37.716;-122.060;2023-06-05T05:28:38;99295.20;;;22.35;35.33
51053;BME280;37093;37.716;-122.060;2023-06-05T05:31:06;99292.57;;;21.60;36.35
51053;BME280;37093;37.716;-122.060;2023-06-05T05:33:36;99295.93;;;21.52;36.25
51053;BME280;37093;37.716;-122.060;2023-06-05T05:36:04;99292.94;;;21.56;36.13
51053;BME280;37093;37.716;-122.060;2023-06-05T05:38:33;99291.73;;;21.68;35.97
51053;BME280;37093;37.716;-122.060;2023-06-05T05:41:01;99286.24;;;21.70;35.77
51053;BME280;37093;37.716;-122.060;2023-06-05T05:43:29;99280.91;;;21.85;35.87
51053;BME280;37093;37.716;-122.060;2023-06-05T05:45:57;99277.93;;;21.59;35.85
51053;BME280;37093;37.716;-122.060;2023-06-05T05:48:25;99286.82;;;21.60;36.43
51053;BME280;37093;37.716;-122.060;2023-06-05T05:50:54;99289.84;;;21.31;36.75
51053;BME280;37093;37.716;-122.060;2023-06-05T05:53:22;99292.57;;;21.10;36.74
51053;BME280;37093;37.716;-122.060;2023-06-05T05:55:50;99296.45;;;21.20;36.49
51053;BME280;37093;37.716;-122.060;2023-06-05T05:58:19;99295.71;;;21.23;36.46
51053;BME280;37093;37.716;-122.060;2023-06-05T06:00:46;99292.24;;;21.26;36.47
51053;BME280;37093;37.716;-122.060;2023-06-05T06:03:16;99289.43;;;21.51;36.41
51053;BME280;37093;37.716;-122.060;2023-06-05T06:05:44;99289.75;;;21.39;36.64
51053;BME280;37093;37.716;-122.060;2023-06-05T06:08:13;99283.93;;;21.08;36.69
51053;BME280;37093;37.716;-122.060;2023-06-05T06:10:41;99281.46;;;21.07;36.55
51053;BME280;37093;37.716;-122.060;2023-06-05T06:13:09;99286.21;;;21.06;36.55
51053;BME280;37093;37.716;-122.060;2023-06-05T06:15:37;99289.86;;;20.77;37.07
51053;BME280;37093;37.716;-122.060;2023-06-05T06:18:06;99289.72;;;21.02;37.06
51053;BME280;37093;37.716;-122.060;2023-06-05T06:20:35;99283.74;;;20.97;37.03
51053;BME280;37093;37.716;-122.060;2023-06-05T06:23:04;99276.82;;;20.67;36.84
51053;BME280;37093;37.716;-122.060;2023-06-05T06:25:32;99266.77;;;20.84;36.71
51053;BME280;37093;37.716;-122.060;2023-06-05T06:28:01;99260.25;;;20.70;36.84
51053;BME280;37093;37.716;-122.060;2023-06-05T06:30:29;99258.58;;;20.40;37.33
51053;BME280;37093;37.716;-122.060;2023-06-05T06:32:57;99267.98;;;20.53;37.34
51053;BME280;37093;37.716;-122.060;2023-06-05T06:35:26;99272.79;;;20.48;37.64
51053;BME280;37093;37.716;-122.060;2023-06-05T06:37:54;99274.76;;;20.36;38.28
51053;BME280;37093;37.716;-122.060;2023-06-05T06:40:23;99273.16;;;20.34;37.80
51053;BME280;37093;37.716;-122.060;2023-06-05T06:42:51;99269.24;;;20.21;38.56
51053;BME280;37093;37.716;-122.060;2023-06-05T06:45:19;99266.34;;;19.74;38.43
51053;BME280;37093;37.716;-122.060;2023-06-05T06:47:47;99262.42;;;20.06;38.43
51053;BME280;37093;37.716;-122.060;2023-06-05T06:50:15;99257.49;;;19.93;38.07
51053;BME280;37093;37.716;-122.060;2023-06-05T06:52:44;99252.18;;;20.06;38.08
51053;BME280;37093;37.716;-122.060;2023-06-05T06:55:12;99246.10;;;20.09;37.88
51053;BME280;37093;37.716;-122.060;2023-06-05T06:57:40;99252.96;;;20.13;37.81
51053;BME280;37093;37.716;-122.060;2023-06-05T07:01:15;99263.92;;;19.11;38.51
51053;BME280;37093;37.716;-122.060;2023-06-05T07:03:43;99260.86;;;19.31;37.10
51053;BME280;37093;37.716;-122.060;2023-06-05T07:06:12;99260.50;;;20.89;35.27
51053;BME280;37093;37.716;-122.060;2023-06-05T07:08:40;99262.29;;;21.42;35.43
51053;BME280;37093;37.716;-122.060;2023-06-05T07:11:09;99264.73;;;21.09;36.25
51053;BME280;37093;37.716;-122.060;2023-06-05T07:13:37;99261.82;;;20.90;36.48
51053;BME280;37093;37.716;-122.060;2023-06-05T07:16:05;99264.39;;;20.06;37.61
51053;BME280;37093;37.716;-122.060;2023-06-05T07:18:33;99270.25;;;19.85;38.62
51053;BME280;37093;37.716;-122.060;2023-06-05T07:21:02;99274.27;;;19.66;38.72
51053;BME280;37093;37.716;-122.060;2023-06-05T07:23:30;99272.59;;;19.83;39.95
51053;BME280;37093;37.716;-122.060;2023-06-05T07:25:59;99276.83;;;19.27;40.17
51053;BME280;37093;37.716;-122.060;2023-06-05T07:28:27;99281.86;;;18.65;41.30
51053;BME280;37093;37.716;-122.060;2023-06-05T07:30:55;99285.49;;;18.46;42.83
51053;BME280;37093;37.716;-122.060;2023-06-05T07:33:23;99287.28;;;18.89;41.88
51053;BME280;37093;37.716;-122.060;2023-06-05T07:35:52;99291.24;;;18.98;42.16
51053;BME280;37093;37.716;-122.060;2023-06-05T07:38:20;99292.89;;;18.98;41.41
51053;BME280;37093;37.716;-122.060;2023-06-05T07:40:48;99292.01;;;18.92;40.90
51053;BME280;37093;37.716;-122.060;2023-06-05T07:43:17;99290.07;;;19.15;40.55
51053;BME280;37093;37.716;-122.060;2023-06-05T07:45:44;99283.94;;;19.59;39.96
51053;BME280;37093;37.716;-122.060;2023-06-05T07:48:13;99285.26;;;18.90;40.45
51053;BME280;37093;37.716;-122.060;2023-06-05T07:50:41;99283.25;;;19.03;41.65
51053;BME280;37093;37.716;-122.060;2023-06-05T07:53:10;99285.66;;;18.70;41.06
51053;BME280;37093;37.716;-122.060;2023-06-05T07:55:38;99282.19;;;19.19;40.96
51053;BME280;37093;37.716;-122.060;2023-06-05T07:58:06;99282.36;;;18.92;41.62
51053;BME280;37093;37.716;-122.060;2023-06-05T08:00:35;99276.46;;;19.14;40.90
51053;BME280;37093;37.716;-122.060;2023-06-05T08:03:03;99273.57;;;19.29;40.93
51053;BME280;37093;37.716;-122.060;2023-06-05T08:05:31;99270.41;;;19.31;40.31
51053;BME280;37093;37.716;-122.060;2023-06-05T08:08:00;99266.16;;;19.42;40.70
51053;BME280;37093;37.716;-122.060;2023-06-05T08:10:28;99264.15;;;19.06;41.77
51053;BME280;37093;37.716;-122.060;2023-06-05T08:12:56;99259.11;;;19.30;41.24
51053;BME280;37093;37.716;-122.060;2023-06-05T08:15:24;99256.80;;;18.83;41.39
51053;BME280;37093;37.716;-122.060;2023-06-05T08:17:52;99253.58;;;19.14;41.19
51053;BME280;37093;37.716;-122.060;2023-06-05T08:20:20;99251.96;;;18.91;41.49
51053;BME280;37093;37.716;-122.060;2023-06-05T08:22:48;99249.89;;;18.80;41.62
51053;BME280;37093;37.716;-122.060;2023-06-05T08:25:16;99254.91;;;18.92;41.86
51053;BME280;37093;37.716;-122.060;2023-06-05T08:27:44;99252.26;;;18.60;43.01
51053;BME280;37093;37.716;-122.060;2023-06-05T08:30:13;99249.80;;;18.48;42.89
51053;BME280;37093;37.716;-122.060;2023-06-05T08:32:41;99247.06;;;18.72;42.16
51053;BME280;37093;37.716;-122.060;2023-06-05T08:35:10;99240.81;;;18.28;43.41
51053;BME280;37093;37.716;-122.060;2023-06-05T08:37:39;99239.03;;;18.46;43.34
51053;BME280;37093;37.716;-122.060;2023-06-05T08:40:08;99238.57;;;18.25;43.46
51053;BME280;37093;37.716;-122.060;2023-06-05T08:42:37;99235.03;;;18.12;44.44
51053;BME280;37093;37.716;-122.060;2023-06-05T08:45:07;99236.59;;;17.98;44.51
51053;BME280;37093;37.716;-122.060;2023-06-05T08:47:36;99244.72;;;17.96;44.65
51053;BME280;37093;37.716;-122.060;2023-06-05T08:50:06;99247.37;;;17.90;46.23
51053;BME280;37093;37.716;-122.060;2023-06-05T08:52:37;99246.81;;;17.76;46.01
51053;BME280;37093;37.716;-122.060;2023-06-05T08:55:06;99245.69;;;18.12;45.73
51053;BME280;37093;37.716;-122.060;2023-06-05T08:57:35;99242.44;;;18.25;44.32
51053;BME280;37093;37.716;-122.060;2023-06-05T09:00:08;99239.02;;;18.47;43.41
51053;BME280;37093;37.716;-122.060;2023-06-05T09:02:36;99239.81;;;17.56;45.32
51053;BME280;37093;37.716;-122.060;2023-06-05T09:05:05;99241.51;;;17.79;45.99
51053;BME280;37093;37.716;-122.060;2023-06-05T09:07:34;99236.94;;;18.20;44.63
51053;BME280;37093;37.716;-122.060;2023-06-05T09:10:02;99236.04;;;18.47;43.79
51053;BME280;37093;37.716;-122.060;2023-06-05T09:12:30;99240.66;;;18.62;43.07
51053;BME280;37093;37.716;-122.060;2023-06-05T09:14:58;99242.57;;;18.37;43.41
51053;BME280;37093;37.716;-122.060;2023-06-05T09:17:26;99244.70;;;18.27;44.37
51053;BME280;37093;37.716;-122.060;2023-06-05T09:19:54;99241.88;;;18.43;43.48
51053;BME280;37093;37.716;-122.060;2023-06-05T09:22:33;99238.71;;;17.86;45.49
51053;BME280;37093;37.716;-122.060;2023-06-05T09:25:02;99234.84;;;18.03;44.51
51053;BME280;37093;37.716;-122.060;2023-06-05T09:27:30;99232.85;;;18.16;44.87
51053;BME280;37093;37.716;-122.060;2023-06-05T09:30:03;99230.37;;;17.88;44.34
51053;BME280;37093;37.716;-122.060;2023-06-05T09:32:31;99231.20;;;17.73;45.27
51053;BME280;37093;37.716;-122.060;2023-06-05T09:35:00;99231.18;;;17.92;45.68
51053;BME280;37093;37.716;-122.060;2023-06-05T09:37:36;99234.50;;;17.58;45.97
51053;BME280;37093;37.716;-122.060;2023-06-05T09:40:07;99236.77;;;17.88;45.01
51053;BME280;37093;37.716;-122.060;2023-06-05T09:42:35;99239.49;;;18.20;44.31
51053;BME280;37093;37.716;-122.060;2023-06-05T09:45:05;99239.81;;;18.28;44.32
51053;BME280;37093;37.716;-122.060;2023-06-05T09:47:34;99235.73;;;18.53;43.51
51053;BME280;37093;37.716;-122.060;2023-06-05T09:50:03;99235.32;;;18.35;43.50
51053;BME280;37093;37.716;-122.060;2023-06-05T09:52:32;99235.25;;;18.57;42.94
51053;BME280;37093;37.716;-122.060;2023-06-05T09:55:06;99236.58;;;18.56;43.29
51053;BME280;37093;37.716;-122.060;2023-06-05T09:57:35;99232.81;;;18.44;43.63
51053;BME280;37093;37.716;-122.060;2023-06-05T10:00:07;99229.41;;;17.91;44.17
51053;BME280;37093;37.716;-122.060;2023-06-05T10:02:36;99225.91;;;17.86;45.45
51053;BME280;37093;37.716;-122.060;2023-06-05T10:05:07;99223.61;;;17.75;45.66
51053;BME280;37093;37.716;-122.060;2023-06-05T10:07:37;99222.15;;;18.06;44.48
51053;BME280;37093;37.716;-122.060;2023-06-05T10:10:09;99217.58;;;18.54;43.72
51053;BME280;37093;37.716;-122.060;2023-06-05T10:12:37;99214.18;;;18.54;43.20
51053;BME280;37093;37.716;-122.060;2023-06-05T10:15:07;99222.88;;;18.43;44.24
51053;BME280;37093;37.716;-122.060;2023-06-05T10:17:35;99221.87;;;18.75;42.70
51053;BME280;37093;37.716;-122.060;2023-06-05T10:20:06;99219.09;;;18.90;42.32
51053;BME280;37093;37.716;-122.060;2023-06-05T10:22:36;99217.22;;;19.11;41.89
51053;BME280;37093;37.716;-122.060;2023-06-05T10:25:10;99212.78;;;18.46;42.67
51053;BME280;37093;37.716;-122.060;2023-06-05T10:27:50;99214.76;;;19.07;42.25
51053;BME280;37093;37.716;-122.060;2023-06-05T10:30:39;99213.01;;;18.95;41.75
51053;BME280;37093;37.716;-122.060;2023-06-05T10:33:28;99217.54;;;19.07;41.65
51053;BME280;37093;37.716;-122.060;2023-06-05T10:36:07;99218.17;;;19.12;41.16
51053;BME280;37093;37.716;-122.060;2023-06-05T10:38:38;99218.69;;;19.39;41.36
51053;BME280;37093;37.716;-122.060;2023-06-05T10:41:07;99225.20;;;19.06;41.54
51053;BME280;37093;37.716;-122.060;2023-06-05T10:43:46;99221.30;;;19.27;41.41
51053;BME280;37093;37.716;-122.060;2023-06-05T10:46:31;99221.71;;;19.47;40.86
51053;BME280;37093;37.716;-122.060;2023-06-05T10:49:08;99219.96;;;19.20;41.59
51053;BME280;37093;37.716;-122.060;2023-06-05T10:51:38;99217.02;;;19.32;41.52
51053;BME280;37093;37.716;-122.060;2023-06-05T10:54:07;99214.98;;;19.63;41.64
51053;BME280;37093;37.716;-122.060;2023-06-05T10:57:07;99218.62;;;19.31;41.95
51053;BME280;37093;37.716;-122.060;2023-06-05T10:59:37;99224.53;;;18.60;45.40
51053;BME280;37093;37.716;-122.060;2023-06-05T11:02:47;99228.10;;;18.44;44.97
51053;BME280;37093;37.716;-122.060;2023-06-05T11:05:15;99233.51;;;18.23;45.46
51053;BME280;37093;37.716;-122.060;2023-06-05T11:07:44;99236.39;;;18.58;45.39
51053;BME280;37093;37.716;-122.060;2023-06-05T11:10:14;99236.03;;;18.47;45.59
51053;BME280;37093;37.716;-122.060;2023-06-05T11:13:00;99240.94;;;18.48;45.10
51053;BME280;37093;37.716;-122.060;2023-06-05T11:15:44;99237.11;;;18.75;44.97
51053;BME280;37093;37.716;-122.060;2023-06-05T11:18:33;99235.07;;;19.00;44.32
51053;BME280;37093;37.716;-122.060;2023-06-05T11:21:02;99231.94;;;18.43;45.86
51053;BME280;37093;37.716;-122.060;2023-06-05T11:23:31;99229.93;;;18.06;48.53
51053;BME280;37093;37.716;-122.060;2023-06-05T11:26:39;99231.89;;;17.46;48.60
51053;BME280;37093;37.716;-122.060;2023-06-05T11:29:15;99229.53;;;17.66;48.86
51053;BME280;37093;37.716;-122.060;2023-06-05T11:31:44;99227.39;;;17.31;48.67
51053;BME280;37093;37.716;-122.060;2023-06-05T11:34:13;99225.83;;;17.56;47.99
51053;BME280;37093;37.716;-122.060;2023-06-05T11:36:42;99225.18;;;17.49;49.67
51053;BME280;37093;37.716;-122.060;2023-06-05T11:39:11;99224.35;;;17.39;50.51
51053;BME280;37093;37.716;-122.060;2023-06-05T11:41:45;99226.47;;;17.45;49.72
51053;BME280;37093;37.716;-122.060;2023-06-05T11:44:13;99235.30;;;17.90;48.25
51053;BME280;37093;37.716;-122.060;2023-06-05T11:46:43;99237.13;;;17.64;48.13
51053;BME280;37093;37.716;-122.060;2023-06-05T11:49:24;99237.09;;;17.97;48.38
51053;BME280;37093;37.716;-122.060;2023-06-05T11:51:53;99238.43;;;17.57;47.47
51053;BME280;37093;37.716;-122.060;2023-06-05T11:54:30;99238.53;;;18.07;47.70
51053;BME280;37093;37.716;-122.060;2023-06-05T11:57:01;99243.80;;;18.14;46.82
51053;BME280;37093;37.716;-122.060;2023-06-05T11:59:29;99243.38;;;18.52;46.45
51053;BME280;37093;37.716;-122.060;2023-06-05T12:01:58;99243.10;;;18.66;46.16
51053;BME280;37093;37.716;-122.060;2023-06-05T12:04:26;99241.60;;;18.41;46.14
51053;BME280;37093;37.716;-122.060;2023-06-05T12:06:54;99244.46;;;18.57;46.09
51053;BME280;37093;37.716;-122.060;2023-06-05T12:09:22;99247.27;;;18.08;47.41
51053;BME280;37093;37.716;-122.060;2023-06-05T12:11:50;99248.94;;;18.39;47.30
51053;BME280;37093;37.716;-122.060;2023-06-05T12:14:37;99245.45;;;18.24;47.08
51053;BME280;37093;37.716;-122.060;2023-06-05T12:17:13;99244.18;;;17.72;49.02
51053;BME280;37093;37.716;-122.060;2023-06-05T12:19:41;99245.28;;;17.96;48.06
51053;BME280;37093;37.716;-122.060;2023-06-05T12:22:09;99246.40;;;17.70;49.07
51053;BME280;37093;37.716;-122.060;2023-06-05T12:24:38;99246.01;;;17.46;49.98
51053;BME280;37093;37.716;-122.060;2023-06-05T12:27:06;99250.54;;;17.69;50.16
51053;BME280;37093;37.716;-122.060;2023-06-05T12:29:36;99252.87;;;17.24;48.63
51053;BME280;37093;37.716;-122.060;2023-06-05T12:32:21;99255.82;;;17.42;49.28
51053;BME280;37093;37.716;-122.060;2023-06-05T12:34:51;99255.31;;;17.96;47.86
51053;BME280;37093;37.716;-122.060;2023-06-05T12:37:24;99250.13;;;17.26;49.33
51053;BME280;37093;37.716;-122.060;2023-06-05T12:39:52;99251.72;;;17.44;48.35
51053;BME280;37093;37.716;-122.060;2023-06-05T12:42:20;99259.02;;;17.66;48.38
51053;BME280;37093;37.716;-122.060;2023-06-05T12:44:49;99262.28;;;18.05;47.91